Pelsall, United Kingdom
Current Conditions -  °F | °C
As of 9:50 AM on Thursday 23 Oct 2014 (Local Time) from EGBB Reporting Station
Broken Clouds Broken Clouds  
Wind Chill: 54°   Ceiling: 1000
Heat Index: 54°   Visibility: 6mi
Dew Point: 50°   Wind: 8mph
Humidity: 88%   Direction: 190°S
Pressure: 30.03"   Gusts: NA
Location:  52.63°N, 1.97°W
Report Text: EGBB 230850Z 19007KT 150V240 9999 SCT008 BKN010 12/10 Q1017
Loading
Personal Weather Stations






























Interactive Weather Map
Tropical Storm Tracking
New forecast layout! Learn more

10-Day Weather Forecast

Advertisements
Track Severe Weather on mobile